Skip Navigation Links Skip Navigation Links

Current Weather

Richmond AAFB, Richmond, Australia

For information only: do not use for flight planning or navigation.
Latest weather
Observation time Sunday, August 25, 2019 3:00 PM AEST
Local time Sunday, August 25, 2019 3:10 PM AEST
Flight conditions Visual Meteorological Conditions
Winds
Wind direction Southeast (130°)
Wind speed 18 mph
Visibility 6.2 mi.
Sky condition
Ceiling unlimited
Temperature 68°F
Dewpoint 48°F
Altimeter 30.00 in.Hg
Derived measurements
Relative humidity 49%
Density altitude 657 ft.
Remarks
Fully automated report.
METAR YSRI 250500Z AUTO 13016KT 9999 // ////// 20/09 Q1016

Settings

Location code

InnerDrive.Weather 4.0.6770.0 Release CLR 4.0.30319.42000
Copyright ©2018 Inner Drive Technology. All rights reserved. Portions Copyright ©1986-2018 David Braverman.

Find weather

Site navigation


Skip Navigation Links

Place info

Page info

PayPal - The safer, easier way to pay online!

Return home.

Copyright ©2019 Inner Drive Technology. Purveyors of fine, hand-crafted computer software. Page printed 2019-08-25T05:10:06 UTC.